createdAt,value
2023-04-03T00:00:23.504Z,3.47
2023-04-03T00:10:28.306Z,3.33
2023-04-03T00:20:31.090Z,3.25
2023-04-03T00:30:35.488Z,3.12
2023-04-03T00:40:40.216Z,3.02
2023-04-03T00:50:45.938Z,2.85
2023-04-03T01:00:58.257Z,2.74
2023-04-03T01:11:02.267Z,2.64
2023-04-03T01:21:36.844Z,2.46
2023-04-03T01:31:48.990Z,2.31
2023-04-03T01:41:51.946Z,2.15
2023-04-03T01:51:56.221Z,2.00
2023-04-03T02:01:59.047Z,1.98
2023-04-03T02:12:03.034Z,1.70
2023-04-03T02:22:06.162Z,1.68
2023-04-03T02:32:10.217Z,1.64
2023-04-03T02:42:13.000Z,1.56
2023-04-03T02:52:17.098Z,1.54
2023-04-03T03:02:19.741Z,1.43
2023-04-03T03:12:25.126Z,1.34
2023-04-03T03:22:27.921Z,1.23
2023-04-03T03:32:31.927Z,1.24
2023-04-03T03:42:34.537Z,1.17
2023-04-03T03:52:39.697Z,0.99
2023-04-03T04:02:42.423Z,1.01
2023-04-03T04:12:46.454Z,0.88
2023-04-03T04:22:49.092Z,0.81
2023-04-03T04:32:53.090Z,0.78
2023-04-03T04:42:56.067Z,0.64
2023-04-03T04:53:00.102Z,0.60
2023-04-03T05:03:02.795Z,0.69
2023-04-03T05:13:06.890Z,0.67
2023-04-03T05:23:09.495Z,0.76
2023-04-03T05:33:14.995Z,0.72
2023-04-03T05:43:17.834Z,0.78
2023-04-03T05:53:25.905Z,0.98
2023-04-03T06:03:28.642Z,1.14
2023-04-03T06:13:32.836Z,1.41
2023-04-03T06:23:35.720Z,1.69
2023-04-03T06:33:39.693Z,1.88
2023-04-03T06:43:42.498Z,2.14
2023-04-03T06:53:46.688Z,2.45
2023-04-03T07:03:50.292Z,2.81
2023-04-03T07:13:54.688Z,3.14
2023-04-03T07:23:57.463Z,3.54
2023-04-03T07:34:01.535Z,3.99
2023-04-03T07:44:05.525Z,4.32
2023-04-03T07:54:09.547Z,4.79
2023-04-03T08:04:12.560Z,5.12
2023-04-03T08:14:19.340Z,5.59
2023-04-03T08:24:22.183Z,5.97
2023-04-03T08:34:26.210Z,6.35
2023-04-03T08:44:41.532Z,6.59
2023-04-03T08:54:51.757Z,6.99
2023-04-03T09:04:54.538Z,7.05
2023-04-03T09:15:08.066Z,7.53
2023-04-03T09:25:15.423Z,7.63
2023-04-03T09:35:35.982Z,8.08
2023-04-03T09:45:42.957Z,8.46
2023-04-03T09:55:48.005Z,8.59
2023-04-03T10:05:52.349Z,8.79
2023-04-03T10:16:02.553Z,9.00
2023-04-03T10:26:17.096Z,9.22
2023-04-03T10:36:31.144Z,9.39
2023-04-03T10:46:39.266Z,9.63
2023-04-03T10:56:46.817Z,9.99
2023-04-03T11:06:52.169Z,10.25
2023-04-03T11:17:17.462Z,10.55
2023-04-03T11:27:24.349Z,12.20
2023-04-03T11:37:36.444Z,25.42
2023-04-03T11:47:50.985Z,29.18
2023-04-03T11:58:14.138Z,30.50
2023-04-03T12:08:27.613Z,29.66
2023-04-03T12:19:03.113Z,28.53
2023-04-03T12:29:18.353Z,28.84
2023-04-03T12:39:38.538Z,30.01
2023-04-03T12:49:43.542Z,30.48
2023-04-03T12:59:48.065Z,29.34
2023-04-03T13:09:57.851Z,28.56
2023-04-03T13:20:15.456Z,25.08
2023-04-03T13:30:25.393Z,20.71
2023-04-03T13:40:32.465Z,20.55
2023-04-03T13:51:18.570Z,20.22
2023-04-03T14:01:24.668Z,19.66
2023-04-03T14:11:31.209Z,19.17
2023-04-03T14:21:35.328Z,19.22
2023-04-03T14:31:38.589Z,17.74
2023-04-03T14:41:42.602Z,16.71
2023-04-03T14:51:45.402Z,17.07
2023-04-03T15:01:50.094Z,16.50
2023-04-03T15:11:54.179Z,16.94
2023-04-03T15:21:58.166Z,15.68
2023-04-03T15:32:01.062Z,16.20
2023-04-03T15:42:07.127Z,14.63
2023-04-03T15:52:10.245Z,14.18
2023-04-03T16:02:15.370Z,13.93
2023-04-03T16:12:18.142Z,13.58
2023-04-03T16:22:22.471Z,14.06
2023-04-03T16:32:27.842Z,14.08
2023-04-03T16:42:32.069Z,13.05
2023-04-03T16:52:37.123Z,12.50
2023-04-03T17:02:41.268Z,12.25
2023-04-03T17:12:43.977Z,11.66
2023-04-03T17:22:48.462Z,11.12
2023-04-03T17:32:51.171Z,10.25
2023-04-03T17:42:55.224Z,9.68
2023-04-03T17:52:57.926Z,9.17
2023-04-03T18:03:01.954Z,8.78
2023-04-03T18:13:06.003Z,8.27
2023-04-03T18:23:10.059Z,7.93
2023-04-03T18:33:12.714Z,7.78
2023-04-03T18:43:17.138Z,7.47
2023-04-03T18:53:19.801Z,7.31
2023-04-03T19:03:24.001Z,7.08
2023-04-03T19:13:27.900Z,6.84
2023-04-03T19:23:31.899Z,6.51
2023-04-03T19:33:35.874Z,6.16
2023-04-03T19:43:40.402Z,5.99
2023-04-03T19:53:43.144Z,5.94
2023-04-03T20:03:47.579Z,5.81
2023-04-03T20:13:50.727Z,5.68
2023-04-03T20:23:54.729Z,5.57
2023-04-03T20:33:57.878Z,5.18
2023-04-03T20:44:02.400Z,5.24
2023-04-03T20:54:05.226Z,4.93
2023-04-03T21:04:15.696Z,4.72
2023-04-03T21:14:56.604Z,4.66
2023-04-03T21:25:00.731Z,4.65
2023-04-03T21:35:04.804Z,4.47
2023-04-03T21:45:10.157Z,4.21
2023-04-03T21:55:15.282Z,4.14
2023-04-03T22:05:19.653Z,4.01
2023-04-03T22:15:23.195Z,3.86
2023-04-03T22:25:27.186Z,3.75
2023-04-03T22:35:29.956Z,3.77
2023-04-03T22:45:34.121Z,3.84
2023-04-03T22:55:37.643Z,3.88
2023-04-03T23:05:41.765Z,3.87
2023-04-03T23:15:44.449Z,3.90
2023-04-03T23:25:52.477Z,3.79
2023-04-03T23:35:55.494Z,3.65
2023-04-03T23:45:59.702Z,3.52
2023-04-03T23:56:02.511Z,3.41
